Time;durP1;ratioP1;P1;durP2;ratioP2;P2;SDS_P1;SDS_P2;PMS_P1;PMS_P2;Temp;Humidity;BMP_temperature;BMP_pressure;BME280_temperature;BME280_humidity;BME280_pressure;Samples;Min_cycle;Max_cycle;Signal;HPM_P1;HPM_P2
2022/04/25 00:01:44;;;;;;;0.00;0.00;;;10.10;98.80;;;;;;4171050;28;20105;-71
2022/04/25 00:04:09;;;;;;;0.00;0.00;;;10.10;98.70;;;;;;4171610;28;20399;-72
2022/04/25 00:06:34;;;;;;;0.00;0.00;;;10.20;98.70;;;;;;4172095;28;20485;-69
2022/04/25 00:08:57;;;;;;;0.00;0.00;;;10.10;98.80;;;;;;4196391;28;20140;-70
2022/04/25 00:11:26;;;;;;;0.00;0.00;;;10.10;98.90;;;;;;4188353;28;20469;-72
2022/04/25 00:13:55;;;;;;;0.00;0.00;;;10.00;99.10;;;;;;4188645;28;20068;-72
2022/04/25 00:16:20;;;;;;;0.00;0.00;;;10.00;99.30;;;;;;4216726;28;20052;-72
2022/04/25 00:18:53;;;;;;;0.00;0.00;;;10.00;99.40;;;;;;4203299;28;20102;-71
2022/04/25 00:21:15;;;;;;;0.00;0.00;;;10.00;99.40;;;;;;4216262;28;20083;-71
2022/04/25 00:23:42;;;;;;;0.00;0.00;;;10.00;99.50;;;;;;4201650;28;20509;-71
2022/04/25 00:26:23;;;;;;;0.00;0.00;;;10.00;99.60;;;;;;4190043;28;20126;-70
2022/04/25 00:28:45;;;;;;;0.00;0.00;;;10.00;99.60;;;;;;4201534;28;20110;-73
2022/04/25 00:31:13;;;;;;;0.00;0.00;;;10.00;99.50;;;;;;4197969;28;20041;-70
2022/04/25 00:33:36;;;;;;;0.00;0.00;;;10.10;99.60;;;;;;4213672;28;20048;-69
2022/04/25 00:35:58;;;;;;;0.00;0.00;;;10.00;99.60;;;;;;4216473;28;20078;-72
2022/04/25 00:38:32;;;;;;;0.00;0.00;;;10.00;99.70;;;;;;4182927;28;20056;-71
2022/04/25 00:40:54;;;;;;;0.00;0.00;;;10.10;99.70;;;;;;4182288;28;20069;-70
2022/04/25 00:43:29;;;;;;;0.00;0.00;;;10.20;99.60;;;;;;4181673;28;20483;-72
2022/04/25 00:46:00;;;;;;;0.00;0.00;;;10.20;99.40;;;;;;4182905;28;20459;-71
2022/04/25 00:48:27;;;;;;;0.00;0.00;;;10.30;99.30;;;;;;4182886;28;20104;-74
2022/04/25 00:50:55;;;;;;;0.00;0.00;;;10.20;99.20;;;;;;4182756;28;20049;-75
2022/04/25 00:53:22;;;;;;;0.00;0.00;;;10.10;99.20;;;;;;4167737;28;20064;-73
2022/04/25 00:55:50;;;;;;;0.00;0.00;;;10.10;99.30;;;;;;4168216;28;20124;-70
2022/04/25 00:58:19;;;;;;;0.00;0.00;;;10.10;99.20;;;;;;4182515;28;20051;-70
2022/04/25 01:01:16;;;;;;;0.00;0.00;;;10.00;99.20;;;;;;4181693;28;20371;-70
2022/04/25 01:03:49;;;;;;;0.00;0.00;;;10.00;99.20;;;;;;4167559;28;20060;-71
2022/04/25 01:06:22;;;;;;;0.00;0.00;;;10.00;99.30;;;;;;4169674;28;20132;-72
2022/04/25 01:08:57;;;;;;;0.00;0.00;;;10.10;99.30;;;;;;4181826;28;20080;-71
2022/04/25 01:11:29;;;;;;;0.00;0.00;;;10.20;99.20;;;;;;4200369;28;20140;-70
2022/04/25 01:14:16;;;;;;;0.00;0.00;;;10.40;99.00;;;;;;4202538;28;20044;-69
2022/04/25 01:17:02;;;;;;;0.00;0.00;;;10.60;98.70;;;;;;4204314;28;20040;-72
2022/04/25 01:19:30;;;;;;;0.00;0.00;;;10.60;98.40;;;;;;4201166;28;20056;-71
2022/04/25 01:22:02;;;;;;;0.00;0.00;;;10.60;98.30;;;;;;4215710;28;20113;-71
2022/04/25 01:27:18;;;;;;;0.00;0.00;;;10.30;98.50;;;;;;4200466;28;20048;-69
2022/04/25 01:29:52;;;;;;;0.00;0.00;;;10.30;98.70;;;;;;4215278;28;20097;-72
2022/04/25 01:32:23;;;;;;;0.00;0.00;;;10.20;98.80;;;;;;4188883;28;20048;-72
2022/04/25 01:34:52;;;;;;;0.00;0.00;;;10.20;98.80;;;;;;4168274;28;20041;-74
2022/04/25 01:37:25;;;;;;;0.00;0.00;;;10.30;98.70;;;;;;4202349;28;20059;-73
2022/04/25 01:39:55;;;;;;;0.00;0.00;;;10.20;98.50;;;;;;4186687;28;20442;-69
2022/04/25 01:42:18;;;;;;;0.00;0.00;;;10.20;98.60;;;;;;4200528;28;20048;-72
2022/04/25 01:44:46;;;;;;;0.00;0.00;;;10.10;98.70;;;;;;4172844;28;20128;-73
2022/04/25 01:47:11;;;;;;;0.00;0.00;;;10.10;98.80;;;;;;4200471;28;20127;-72
2022/04/25 01:49:34;;;;;;;0.00;0.00;;;10.00;98.90;;;;;;4186324;28;20379;-69
2022/04/25 01:51:57;;;;;;;0.00;0.00;;;10.10;99.20;;;;;;4186476;28;20190;-72
2022/04/25 01:54:28;;;;;;;0.00;0.00;;;10.00;98.90;;;;;;4178821;28;20053;-70
2022/04/25 01:56:54;;;;;;;0.00;0.00;;;10.00;99.00;;;;;;4186708;28;20552;-70
2022/04/25 01:59:17;;;;;;;0.00;0.00;;;9.90;99.30;;;;;;4199847;28;20127;-74
2022/04/25 02:01:43;;;;;;;0.00;0.00;;;9.80;99.60;;;;;;4200528;28;20055;-72
2022/04/25 02:04:10;;;;;;;0.00;0.00;;;9.70;99.90;;;;;;4186170;28;20041;-74
2022/04/25 02:06:32;;;;;;;0.00;0.00;;;9.80;99.90;;;;;;4200256;28;20348;-73
2022/04/25 02:08:55;;;;;;;0.00;0.00;;;9.80;99.90;;;;;;4186197;28;20401;-71
2022/04/25 02:11:21;;;;;;;0.00;0.00;;;9.80;99.90;;;;;;4174385;28;20045;-72
2022/04/25 02:13:43;;;;;;;0.00;0.00;;;9.80;99.90;;;;;;4169772;28;20057;-71
2022/04/25 02:16:08;;;;;;;0.00;0.00;;;9.90;99.90;;;;;;4169798;28;20623;-72
2022/04/25 02:18:33;;;;;;;0.00;0.00;;;9.90;99.90;;;;;;4183382;28;20536;-70
2022/04/25 02:23:36;;;;;;;0.00;0.00;;;10.10;99.80;;;;;;4170936;28;20529;-71
2022/04/25 02:25:58;;;;;;;0.00;0.00;;;10.30;99.50;;;;;;4183408;28;20130;-72
2022/04/25 02:28:22;;;;;;;0.00;0.00;;;10.30;99.30;;;;;;4183205;28;20095;-72
2022/04/25 02:30:44;;;;;;;0.00;0.00;;;10.30;99.40;;;;;;4169543;28;20045;-72
2022/04/25 02:33:08;;;;;;;0.00;0.00;;;10.40;99.30;;;;;;4169394;28;20376;-72
2022/04/25 02:35:33;;;;;;;0.00;0.00;;;10.60;99.10;;;;;;4183952;28;20475;-71
2022/04/25 02:38:00;;;;;;;0.00;0.00;;;10.70;98.70;;;;;;4186070;28;20041;-72
2022/04/25 02:40:24;;;;;;;0.00;0.00;;;10.80;98.20;;;;;;4199755;28;20083;-69
2022/04/25 02:42:47;;;;;;;0.00;0.00;;;10.80;98.20;;;;;;4199595;28;20153;-72
2022/04/25 02:45:11;;;;;;;0.00;0.00;;;10.60;98.30;;;;;;4185814;28;20511;-71
2022/04/25 02:47:36;;;;;;;0.00;0.00;;;10.50;98.60;;;;;;4185249;28;20073;-72
2022/04/25 02:50:00;;;;;;;0.00;0.00;;;10.50;98.60;;;;;;4186190;28;20490;-71
2022/04/25 02:52:22;;;;;;;0.00;0.00;;;10.60;98.50;;;;;;4199533;28;20066;-74
2022/04/25 02:54:46;;;;;;;0.00;0.00;;;10.50;98.30;;;;;;4199690;28;20487;-72
2022/04/25 02:57:08;;;;;;;0.00;0.00;;;10.50;98.30;;;;;;4199422;28;20110;-73
2022/04/25 02:59:32;;;;;;;0.00;0.00;;;10.40;98.50;;;;;;4185358;28;20439;-70
2022/04/25 03:01:54;;;;;;;0.00;0.00;;;10.30;98.70;;;;;;4199636;28;20063;-71
2022/04/25 03:04:19;;;;;;;0.00;0.00;;;10.20;99.10;;;;;;4177375;28;20044;-72
2022/04/25 03:06:44;;;;;;;0.00;0.00;;;10.20;99.10;;;;;;4199465;28;20044;-70
2022/04/25 03:09:08;;;;;;;0.00;0.00;;;10.00;99.50;;;;;;4185507;28;20053;-70
2022/04/25 03:11:32;;;;;;;0.00;0.00;;;10.10;99.80;;;;;;4179191;28;20474;-71
2022/04/25 03:13:54;;;;;;;0.00;0.00;;;10.00;99.80;;;;;;4200755;28;20552;-70
2022/04/25 03:16:17;;;;;;;0.00;0.00;;;10.10;99.90;;;;;;4186870;28;20472;-70
2022/04/25 03:18:39;;;;;;;0.00;0.00;;;10.20;99.90;;;;;;4186803;28;20123;-74
2022/04/25 03:21:02;;;;;;;0.00;0.00;;;10.30;99.80;;;;;;4185794;28;20049;-71
2022/04/25 03:23:24;;;;;;;0.00;0.00;;;10.30;99.70;;;;;;4213080;28;20059;-71
2022/04/25 03:25:47;;;;;;;0.00;0.00;;;10.40;99.60;;;;;;4199063;28;20338;-72
2022/04/25 03:28:11;;;;;;;0.00;0.00;;;10.50;99.40;;;;;;4185563;28;20061;-71
2022/04/25 03:30:33;;;;;;;0.00;0.00;;;10.50;99.50;;;;;;4213178;28;20142;-73
2022/04/25 03:32:58;;;;;;;0.00;0.00;;;10.40;99.20;;;;;;4168848;28;20076;-72
2022/04/25 03:35:23;;;;;;;0.00;0.00;;;10.40;99.50;;;;;;4189676;28;20409;-72
2022/04/25 03:37:46;;;;;;;0.00;0.00;;;10.30;99.60;;;;;;4189379;28;20356;-72
2022/04/25 03:40:12;;;;;;;0.00;0.00;;;10.30;99.80;;;;;;4172438;28;20040;-74
2022/04/25 03:42:34;;;;;;;0.00;0.00;;;10.30;99.90;;;;;;4171893;28;20163;-72
2022/04/25 03:44:59;;;;;;;0.00;0.00;;;10.40;99.80;;;;;;4172259;28;20053;-71
2022/04/25 03:47:23;;;;;;;0.00;0.00;;;10.40;99.70;;;;;;4185428;28;20057;-71
2022/04/25 03:49:47;;;;;;;0.00;0.00;;;10.30;99.60;;;;;;4199552;28;20106;-71
2022/04/25 03:52:09;;;;;;;0.00;0.00;;;10.30;99.60;;;;;;4185612;28;20045;-72
2022/04/25 03:57:14;;;;;;;0.00;0.00;;;10.20;99.70;;;;;;4185266;28;20137;-70
2022/04/25 03:59:36;;;;;;;0.00;0.00;;;10.10;99.80;;;;;;4185313;28;20059;-71
2022/04/25 04:01:58;;;;;;;0.00;0.00;;;10.10;99.90;;;;;;4171784;28;20073;-71
2022/04/25 04:04:21;;;;;;;0.00;0.00;;;10.10;99.90;;;;;;4185730;28;20053;-71
2022/04/25 04:06:43;;;;;;;0.00;0.00;;;10.10;99.90;;;;;;4199514;28;20079;-73
2022/04/25 04:09:44;;;;;;;0.00;0.00;;;10.20;99.90;;;;;;4185665;28;20124;-72
2022/04/25 04:11:47;;;;;;;0.00;0.00;;;10.20;99.90;;;;;;4171240;28;20050;-69
2022/04/25 04:14:12;;;;;;;0.00;0.00;;;10.20;99.90;;;;;;4188051;28;20101;-71
2022/04/25 04:16:34;;;;;;;0.00;0.00;;;10.30;99.90;;;;;;4174276;28;20491;-71
2022/04/25 04:18:55;;;;;;;0.00;0.00;;;10.40;99.90;;;;;;4188164;28;20426;-72
2022/04/25 04:21:17;;;;;;;0.00;0.00;;;10.40;99.70;;;;;;4201456;28;20660;-71
2022/04/25 04:23:44;;;;;;;0.00;0.00;;;10.50;99.50;;;;;;4201930;28;20059;-73
2022/04/25 04:26:11;;;;;;;0.00;0.00;;;10.60;99.40;;;;;;4201709;28;20082;-70
2022/04/25 04:28:36;;;;;;;0.00;0.00;;;10.50;99.30;;;;;;4201795;28;20044;-73
2022/04/25 04:31:06;;;;;;;0.00;0.00;;;10.60;99.20;;;;;;4186393;28;20052;-70
2022/04/25 04:33:27;;;;;;;0.00;0.00;;;10.60;99.20;;;;;;4198934;28;20064;-70
2022/04/25 04:38:32;;;;;;;0.00;0.00;;;10.60;99.10;;;;;;4154962;28;20050;-73
2022/04/25 04:40:59;;;;;;;0.00;0.00;;;10.60;99.20;;;;;;4169075;28;20041;-72
2022/04/25 04:43:23;;;;;;;0.00;0.00;;;10.60;99.00;;;;;;4168370;28;20487;-72
2022/04/25 04:45:45;;;;;;;0.00;0.00;;;10.50;99.20;;;;;;4168629;28;20052;-73
2022/04/25 04:48:07;;;;;;;0.00;0.00;;;10.40;99.30;;;;;;4182449;28;20154;-71
2022/04/25 04:50:32;;;;;;;0.00;0.00;;;10.30;99.40;;;;;;4155411;28;20057;-71
2022/04/25 04:53:01;;;;;;;0.00;0.00;;;10.30;99.50;;;;;;4168697;28;20107;-71
2022/04/25 04:55:26;;;;;;;0.00;0.00;;;10.30;99.50;;;;;;4154596;28;20124;-71
2022/04/25 04:57:48;;;;;;;0.00;0.00;;;10.40;99.30;;;;;;4168327;28;20083;-70
2022/04/25 05:00:15;;;;;;;0.00;0.00;;;10.40;99.10;;;;;;4168563;28;20504;-69
2022/04/25 05:02:41;;;;;;;0.00;0.00;;;10.40;99.10;;;;;;4168434;28;20054;-69
2022/04/25 05:05:06;;;;;;;0.00;0.00;;;10.40;99.20;;;;;;4154868;28;20046;-69
2022/04/25 05:07:29;;;;;;;0.00;0.00;;;10.40;99.40;;;;;;4161970;28;20045;-69
2022/04/25 05:09:52;;;;;;;0.00;0.00;;;10.30;99.40;;;;;;4168298;28;20104;-68
2022/04/25 05:12:21;;;;;;;0.00;0.00;;;10.10;99.60;;;;;;4168018;28;20100;-69
2022/04/25 05:14:45;;;;;;;0.00;0.00;;;10.00;99.90;;;;;;4168434;28;20045;-69
2022/04/25 05:17:10;;;;;;;0.00;0.00;;;10.00;99.90;;;;;;4167951;28;20049;-72
2022/04/25 05:19:36;;;;;;;0.00;0.00;;;10.10;99.90;;;;;;4159479;28;20046;-69
2022/04/25 05:21:58;;;;;;;0.00;0.00;;;10.20;99.90;;;;;;4165400;28;20132;-69
2022/04/25 05:24:20;;;;;;;0.00;0.00;;;10.10;99.90;;;;;;4174594;28;20110;-68
2022/04/25 05:26:44;;;;;;;0.00;0.00;;;10.00;99.90;;;;;;4154823;28;20127;-68
2022/04/25 05:29:14;;;;;;;0.00;0.00;;;9.90;99.90;;;;;;4154530;28;20065;-69
2022/04/25 05:31:36;;;;;;;0.00;0.00;;;9.80;99.90;;;;;;4174145;28;20044;-70
2022/04/25 05:33:59;;;;;;;0.00;0.00;;;9.80;99.90;;;;;;4170721;28;20135;-68
2022/04/25 05:36:24;;;;;;;0.00;0.00;;;9.80;99.90;;;;;;4186380;28;20087;-69
2022/04/25 05:38:49;;;;;;;0.00;0.00;;;9.70;99.90;;;;;;4173661;28;20041;-70
2022/04/25 05:41:12;;;;;;;0.00;0.00;;;9.80;99.90;;;;;;4187036;28;20033;-69
2022/04/25 05:43:34;;;;;;;0.00;0.00;;;9.70;99.90;;;;;;4200533;28;20041;-68
2022/04/25 05:45:56;;;;;;;0.00;0.00;;;9.80;99.90;;;;;;4200818;28;20569;-69
2022/04/25 05:53:41;;;;;;;0.00;0.00;;;9.90;99.90;;;;;;4167179;28;20057;-68
2022/04/25 05:56:03;;;;;;;0.00;0.00;;;9.80;99.90;;;;;;4153930;28;20129;-68
2022/04/25 05:58:31;;;;;;;0.00;0.00;;;9.90;99.90;;;;;;4153103;28;20127;-67
2022/04/25 06:00:52;;;;;;;0.00;0.00;;;9.90;99.90;;;;;;4167395;28;20103;-69
2022/04/25 06:03:17;;;;;;;0.00;0.00;;;10.00;99.90;;;;;;4167413;28;20091;-69
2022/04/25 06:05:39;;;;;;;0.00;0.00;;;9.90;99.90;;;;;;4167613;28;20488;-69
2022/04/25 06:08:03;;;;;;;0.00;0.00;;;10.00;99.90;;;;;;4167384;28;20135;-71
2022/04/25 06:10:25;;;;;;;0.00;0.00;;;10.00;99.90;;;;;;4167702;28;20054;-70
2022/04/25 06:12:53;;;;;;;0.00;0.00;;;10.00;99.90;;;;;;4167684;28;20054;-70
2022/04/25 06:15:21;;;;;;;0.00;0.00;;;10.00;99.90;;;;;;4184601;28;20059;-70
2022/04/25 06:17:45;;;;;;;0.00;0.00;;;10.00;99.90;;;;;;4186218;28;20051;-72
2022/04/25 06:20:09;;;;;;;0.00;0.00;;;10.00;99.90;;;;;;4186738;28;20110;-69
2022/04/25 06:22:34;;;;;;;0.00;0.00;;;10.10;99.90;;;;;;4186701;28;20048;-68
2022/04/25 06:24:58;;;;;;;0.00;0.00;;;10.20;99.40;;;;;;4200127;28;20041;-69
2022/04/25 06:27:23;;;;;;;0.00;0.00;;;10.20;99.20;;;;;;4171950;28;20451;-67
2022/04/25 06:29:47;;;;;;;0.00;0.00;;;10.30;99.10;;;;;;4200250;28;20032;-71
2022/04/25 06:32:13;;;;;;;0.00;0.00;;;10.10;99.10;;;;;;4188982;28;20049;-69
2022/04/25 06:34:36;;;;;;;0.00;0.00;;;10.10;99.20;;;;;;4183663;28;20492;-72
2022/04/25 06:36:58;;;;;;;0.00;0.00;;;10.20;99.10;;;;;;4180727;28;20040;-68
2022/04/25 06:39:20;;;;;;;0.00;0.00;;;10.30;98.80;;;;;;4180390;28;20072;-70
2022/04/25 06:41:42;;;;;;;0.00;0.00;;;10.40;98.60;;;;;;4167195;28;20053;-70
2022/04/25 06:44:06;;;;;;;0.00;0.00;;;10.40;98.40;;;;;;4166879;28;20045;-70
2022/04/25 06:46:29;;;;;;;0.00;0.00;;;10.30;98.50;;;;;;4166917;28;20490;-68
2022/04/25 06:51:34;;;;;;;0.00;0.00;;;10.30;98.90;;;;;;4180365;28;20049;-70
2022/04/25 06:53:56;;;;;;;0.00;0.00;;;10.30;98.70;;;;;;4153145;28;20094;-69
2022/04/25 06:56:18;;;;;;;0.00;0.00;;;10.50;98.60;;;;;;4166829;28;20057;-69
2022/04/25 06:58:42;;;;;;;0.00;0.00;;;10.40;98.40;;;;;;4166716;28;20151;-68
2022/04/25 07:01:04;;;;;;;0.00;0.00;;;10.40;98.00;;;;;;4166953;28;20141;-69
2022/04/25 07:03:26;;;;;;;0.00;0.00;;;10.20;98.30;;;;;;4180219;28;20052;-70
2022/04/25 07:05:52;;;;;;;0.00;0.00;;;10.10;98.60;;;;;;4152984;28;20084;-70
2022/04/25 07:08:16;;;;;;;0.00;0.00;;;10.20;98.90;;;;;;4166716;28;20069;-69
2022/04/25 07:10:39;;;;;;;0.00;0.00;;;10.30;98.80;;;;;;4166541;28;20053;-71
2022/04/25 07:13:03;;;;;;;0.00;0.00;;;10.30;98.70;;;;;;4153456;28;20128;-70
2022/04/25 07:15:25;;;;;;;0.00;0.00;;;10.30;98.60;;;;;;4186349;28;20060;-69
2022/04/25 07:17:55;;;;;;;0.00;0.00;;;10.20;98.40;;;;;;4185731;28;20041;-69
2022/04/25 07:20:20;;;;;;;0.00;0.00;;;10.00;98.60;;;;;;4199684;28;20049;-68
2022/04/25 07:30:46;;;;;;;0.00;0.00;;;10.10;98.70;;;;;;4199517;28;20055;-67
2022/04/25 07:33:08;;;;;;;0.00;0.00;;;10.00;98.70;;;;;;4169500;28;20087;-68
2022/04/25 07:35:30;;;;;;;0.00;0.00;;;10.10;98.90;;;;;;4169007;28;20549;-67
2022/04/25 07:37:51;;;;;;;0.00;0.00;;;10.10;98.80;;;;;;4166332;28;20100;-70
2022/04/25 07:40:14;;;;;;;0.00;0.00;;;10.20;98.70;;;;;;4166607;28;20569;-68
2022/04/25 07:42:39;;;;;;;0.00;0.00;;;10.20;98.70;;;;;;4152736;28;20037;-69
2022/04/25 07:45:03;;;;;;;0.00;0.00;;;10.20;98.90;;;;;;4166270;28;20063;-71
2022/04/25 07:47:26;;;;;;;0.00;0.00;;;10.20;98.70;;;;;;4166154;28;20057;-70
2022/04/25 07:49:48;;;;;;;0.00;0.00;;;10.30;98.70;;;;;;4180262;28;20052;-69
2022/04/25 07:52:10;;;;;;;0.00;0.00;;;10.20;98.70;;;;;;4180504;28;20118;-70
2022/04/25 07:54:37;;;;;;;0.00;0.00;;;10.30;98.70;;;;;;4166473;28;20160;-70
2022/04/25 07:56:59;;;;;;;0.00;0.00;;;10.30;98.60;;;;;;4179953;28;20079;-69
2022/04/25 07:59:21;;;;;;;0.00;0.00;;;10.20;98.70;;;;;;4165555;28;20447;-69
2022/04/25 08:01:43;;;;;;;0.00;0.00;;;10.30;98.90;;;;;;4179716;28;20044;-71
2022/04/25 08:04:08;;;;;;;0.00;0.00;;;10.40;99.00;;;;;;4167449;28;20077;-72
2022/04/25 08:06:30;;;;;;;0.00;0.00;;;10.50;99.00;;;;;;4167851;28;20087;-71
2022/04/25 08:08:56;;;;;;;0.00;0.00;;;10.70;98.90;;;;;;4166864;28;20050;-69
2022/04/25 08:11:22;;;;;;;0.00;0.00;;;10.70;98.70;;;;;;4179626;28;20045;-68
2022/04/25 08:19:13;;;;;;;0.00;0.00;;;10.60;98.70;;;;;;4179998;28;20093;-70
2022/04/25 08:21:41;;;;;;;0.00;0.00;;;10.70;98.70;;;;;;4179849;28;20063;-70
2022/04/25 08:24:04;;;;;;;0.00;0.00;;;10.70;98.60;;;;;;4155297;28;20049;-69
2022/04/25 08:26:28;;;;;;;0.00;0.00;;;10.80;98.30;;;;;;4168412;28;20392;-72
2022/04/25 08:28:51;;;;;;;0.00;0.00;;;10.80;98.10;;;;;;4168807;28;20045;-68
2022/04/25 08:31:32;;;;;;;0.00;0.00;;;10.80;98.00;;;;;;4173238;28;20049;-69
2022/04/25 08:33:57;;;;;;;0.00;0.00;;;10.90;97.60;;;;;;4171469;28;20052;-69
2022/04/25 08:36:19;;;;;;;0.00;0.00;;;10.90;97.50;;;;;;4186544;28;20514;-70
2022/04/25 08:38:45;;;;;;;0.00;0.00;;;11.00;97.20;;;;;;4188120;28;20048;-70
2022/04/25 08:41:07;;;;;;;0.00;0.00;;;11.00;97.20;;;;;;4187914;28;20075;-68
2022/04/25 08:43:31;;;;;;;0.00;0.00;;;11.20;97.20;;;;;;4187734;28;20088;-70
2022/04/25 08:45:57;;;;;;;0.00;0.00;;;11.30;97.10;;;;;;4174420;28;20037;-69
2022/04/25 08:48:21;;;;;;;0.00;0.00;;;11.40;96.60;;;;;;4188453;28;20395;-71
2022/04/25 08:50:45;;;;;;;0.00;0.00;;;11.50;96.30;;;;;;4201571;28;20052;-70
2022/04/25 08:53:07;;;;;;;0.00;0.00;;;11.70;96.50;;;;;;4201589;28;20459;-70
2022/04/25 08:55:34;;;;;;;0.00;0.00;;;11.80;96.60;;;;;;4201300;28;20212;-71
2022/04/25 08:57:58;;;;;;;0.00;0.00;;;12.00;96.20;;;;;;4201429;28;20048;-70
2022/04/25 09:00:20;;;;;;;0.00;0.00;;;12.10;96.00;;;;;;4201754;28;20044;-68
2022/04/25 09:02:44;;;;;;;0.00;0.00;;;12.20;95.60;;;;;;4187646;28;20098;-68
2022/04/25 09:05:08;;;;;;;0.00;0.00;;;12.10;95.40;;;;;;4187563;28;20063;-69
2022/04/25 09:07:30;;;;;;;0.00;0.00;;;12.20;95.10;;;;;;4201184;28;20076;-70
2022/04/25 09:09:55;;;;;;;0.00;0.00;;;12.20;94.70;;;;;;4187286;28;20047;-70
2022/04/25 09:12:19;;;;;;;0.00;0.00;;;12.10;94.70;;;;;;4187725;28;20363;-69
2022/04/25 09:14:46;;;;;;;0.00;0.00;;;12.10;94.70;;;;;;4187403;28;20057;-71
2022/04/25 09:17:29;;;;;;;0.00;0.00;;;12.30;94.90;;;;;;4190286;28;20048;-68
2022/04/25 09:19:51;;;;;;;0.00;0.00;;;12.20;94.70;;;;;;4187296;28;20083;-69
2022/04/25 09:22:30;;;;;;;0.00;0.00;;;12.40;94.60;;;;;;4187244;28;20053;-75
2022/04/25 09:24:54;;;;;;;0.00;0.00;;;12.60;94.70;;;;;;4187422;28;20086;-69
2022/04/25 09:27:22;;;;;;;0.00;0.00;;;12.60;94.00;;;;;;4200465;28;20525;-68
2022/04/25 09:29:49;;;;;;;0.00;0.00;;;12.50;93.60;;;;;;4187108;28;20089;-70
2022/04/25 09:32:16;;;;;;;0.00;0.00;;;12.60;93.70;;;;;;4175570;28;20045;-68
2022/04/25 09:37:41;;;;;;;0.00;0.00;;;12.70;93.30;;;;;;4193641;28;20056;-69
2022/04/25 09:40:06;;;;;;;0.00;0.00;;;12.80;92.60;;;;;;4187550;28;20417;-69
2022/04/25 09:42:28;;;;;;;0.00;0.00;;;12.80;92.60;;;;;;4186983;28;20049;-70
2022/04/25 09:44:58;;;;;;;0.00;0.00;;;12.80;92.80;;;;;;4187066;28;20060;-70
2022/04/25 09:47:29;;;;;;;0.00;0.00;;;12.70;92.60;;;;;;4186353;28;20052;-68
2022/04/25 09:50:00;;;;;;;0.00;0.00;;;12.70;92.90;;;;;;4200742;28;20048;-69
2022/04/25 09:52:26;;;;;;;0.00;0.00;;;12.70;93.00;;;;;;4200607;28;20475;-69
2022/04/25 09:54:48;;;;;;;0.00;0.00;;;12.80;93.00;;;;;;4200678;28;20055;-71
2022/04/25 09:57:29;;;;;;;0.00;0.00;;;12.70;92.60;;;;;;4187508;28;20383;-72
2022/04/25 09:59:51;;;;;;;0.00;0.00;;;12.90;92.70;;;;;;4187536;28;20037;-70
2022/04/25 10:02:20;;;;;;;0.00;0.00;;;13.10;92.60;;;;;;4201461;28;20485;-69
2022/04/25 10:04:44;;;;;;;0.00;0.00;;;13.30;92.10;;;;;;4201783;28;20104;-70
2022/04/25 10:07:06;;;;;;;0.00;0.00;;;13.30;91.70;;;;;;4173894;28;20045;-71
2022/04/25 10:09:37;;;;;;;0.00;0.00;;;13.50;91.40;;;;;;4187401;28;20475;-70
2022/04/25 10:12:03;;;;;;;0.00;0.00;;;13.70;91.20;;;;;;4202264;28;20044;-71
2022/04/25 10:14:27;;;;;;;0.00;0.00;;;13.80;90.80;;;;;;4203569;28;20051;-72
2022/04/25 10:16:49;;;;;;;0.00;0.00;;;14.00;91.20;;;;;;4203419;28;20364;-71
2022/04/25 10:19:14;;;;;;;0.00;0.00;;;14.20;91.60;;;;;;4203130;28;20095;-68
2022/04/25 10:21:37;;;;;;;0.00;0.00;;;14.30;91.50;;;;;;4190133;28;20049;-70
2022/04/25 10:24:02;;;;;;;0.00;0.00;;;14.40;91.30;;;;;;4191243;28;20048;-71
2022/04/25 10:26:27;;;;;;;0.00;0.00;;;14.40;91.30;;;;;;4177061;28;20045;-69
2022/04/25 10:28:57;;;;;;;0.00;0.00;;;14.40;91.10;;;;;;4204293;28;20033;-68
2022/04/25 10:31:24;;;;;;;0.00;0.00;;;14.40;91.10;;;;;;4190147;28;20041;-69
2022/04/25 10:33:49;;;;;;;0.00;0.00;;;14.40;91.10;;;;;;4202308;28;20052;-69
2022/04/25 10:36:38;;;;;;;0.00;0.00;;;14.40;91.10;;;;;;4173653;28;20161;-69
2022/04/25 10:39:12;;;;;;;0.00;0.00;;;14.40;90.90;;;;;;4187322;28;20100;-69
2022/04/25 10:44:17;;;;;;;0.00;0.00;;;14.40;91.30;;;;;;4172902;28;20423;-69
2022/04/25 10:47:05;;;;;;;0.00;0.00;;;14.40;91.20;;;;;;4186947;28;20041;-68
2022/04/25 10:49:42;;;;;;;0.00;0.00;;;14.30;91.70;;;;;;4189224;28;20079;-71
2022/04/25 10:52:08;;;;;;;0.00;0.00;;;14.20;91.10;;;;;;4190996;28;20048;-68
2022/04/25 10:55:03;;;;;;;0.00;0.00;;;14.10;91.20;;;;;;4186694;28;20044;-70
2022/04/25 10:57:27;;;;;;;0.00;0.00;;;14.10;91.50;;;;;;4200085;28;20434;-70
2022/04/25 10:59:49;;;;;;;0.00;0.00;;;14.20;91.20;;;;;;4186234;28;20111;-69
2022/04/25 11:02:24;;;;;;;0.00;0.00;;;14.30;90.70;;;;;;4200134;28;20045;-67
2022/04/25 11:04:46;;;;;;;0.00;0.00;;;14.10;90.30;;;;;;4186348;28;20058;-69
2022/04/25 11:07:22;;;;;;;0.00;0.00;;;14.00;90.70;;;;;;4199724;28;20117;-69
2022/04/25 11:09:45;;;;;;;0.00;0.00;;;13.80;90.30;;;;;;4199531;28;20049;-70
2022/04/25 11:12:10;;;;;;;0.00;0.00;;;13.90;90.60;;;;;;4186019;28;20568;-71
2022/04/25 11:14:35;;;;;;;0.00;0.00;;;13.90;90.60;;;;;;4186198;28;20478;-70
2022/04/25 11:17:12;;;;;;;0.00;0.00;;;13.80;90.20;;;;;;4200039;28;20045;-69
2022/04/25 11:19:51;;;;;;;0.00;0.00;;;13.70;90.30;;;;;;4199210;28;20057;-71
2022/04/25 11:22:38;;;;;;;0.00;0.00;;;13.60;90.20;;;;;;4190085;28;20045;-68
2022/04/25 11:25:19;;;;;;;0.00;0.00;;;13.60;90.00;;;;;;4187188;28;20052;-72
2022/04/25 11:28:10;;;;;;;0.00;0.00;;;13.50;90.00;;;;;;4213510;28;20044;-72
2022/04/25 11:30:35;;;;;;;0.00;0.00;;;13.60;89.60;;;;;;4167152;28;20499;-69
2022/04/25 11:33:08;;;;;;;0.00;0.00;;;13.70;89.60;;;;;;4169362;28;20037;-70
2022/04/25 11:35:33;;;;;;;0.00;0.00;;;13.70;89.50;;;;;;4176656;28;20507;-71
2022/04/25 11:37:57;;;;;;;0.00;0.00;;;13.80;89.90;;;;;;4194618;28;20135;-69
2022/04/25 11:40:20;;;;;;;0.00;0.00;;;14.10;89.30;;;;;;4185642;28;20049;-69
2022/04/25 11:42:44;;;;;;;0.00;0.00;;;14.00;88.60;;;;;;4185584;28;20072;-71
2022/04/25 11:45:09;;;;;;;0.00;0.00;;;13.90;89.30;;;;;;4171985;28;20045;-68
2022/04/25 11:47:32;;;;;;;0.00;0.00;;;14.00;88.40;;;;;;4178813;28;20257;-71
2022/04/25 11:50:02;;;;;;;0.00;0.00;;;13.90;88.50;;;;;;4171663;28;20139;-71
2022/04/25 11:52:26;;;;;;;0.00;0.00;;;13.90;88.20;;;;;;4185708;28;20091;-70
2022/04/25 11:54:50;;;;;;;0.00;0.00;;;14.00;87.30;;;;;;4199504;28;20048;-71
2022/04/25 11:57:16;;;;;;;0.00;0.00;;;14.20;86.60;;;;;;4187090;28;20129;-68
2022/04/25 11:59:38;;;;;;;0.00;0.00;;;14.20;86.20;;;;;;4202605;28;20384;-70
2022/04/25 12:02:02;;;;;;;0.00;0.00;;;14.30;85.20;;;;;;4188569;28;20104;-70
2022/04/25 12:04:28;;;;;;;0.00;0.00;;;14.30;83.70;;;;;;4181931;28;20088;-69
2022/04/25 12:06:54;;;;;;;0.00;0.00;;;14.30;82.90;;;;;;4202417;28;20134;-68
2022/04/25 12:17:23;;;;;;;0.00;0.00;;;14.30;82.20;;;;;;4201863;28;20045;-70
2022/04/25 12:19:58;;;;;;;0.00;0.00;;;14.30;81.80;;;;;;4202146;28;20064;-69
2022/04/25 12:22:22;;;;;;;0.00;0.00;;;14.40;81.10;;;;;;4174489;28;20057;-70
2022/04/25 12:24:44;;;;;;;0.00;0.00;;;14.40;79.30;;;;;;4174510;28;20056;-70
2022/04/25 12:27:15;;;;;;;0.00;0.00;;;14.40;80.60;;;;;;4201922;28;20052;-67
2022/04/25 12:30:04;;;;;;;0.00;0.00;;;14.50;80.60;;;;;;4187583;28;20049;-69
2022/04/25 12:32:27;;;;;;;0.00;0.00;;;14.60;80.60;;;;;;4188269;28;20048;-69
2022/04/25 12:34:52;;;;;;;0.00;0.00;;;14.80;81.10;;;;;;4185426;28;20049;-70
2022/04/25 12:37:14;;;;;;;0.00;0.00;;;15.00;80.90;;;;;;4184978;28;20044;-69
2022/04/25 12:39:36;;;;;;;0.00;0.00;;;15.00;80.50;;;;;;4171144;28;20468;-70
2022/04/25 12:42:01;;;;;;;0.00;0.00;;;15.10;80.90;;;;;;4171524;28;20403;-72
2022/04/25 12:44:28;;;;;;;0.00;0.00;;;15.20;80.50;;;;;;4171254;28;20480;-69
2022/04/25 12:46:59;;;;;;;0.00;0.00;;;15.20;80.00;;;;;;4185340;28;20404;-70
2022/04/25 12:49:34;;;;;;;0.00;0.00;;;15.30;80.40;;;;;;4184971;28;20041;-71
2022/04/25 12:51:57;;;;;;;0.00;0.00;;;15.40;80.20;;;;;;4171640;28;20049;-70
2022/04/25 12:54:37;;;;;;;0.00;0.00;;;15.10;79.90;;;;;;4185462;28;20041;-71
2022/04/25 12:57:28;;;;;;;0.00;0.00;;;15.00;80.30;;;;;;4185877;28;20192;-66
2022/04/25 12:59:53;;;;;;;0.00;0.00;;;15.20;79.70;;;;;;4186130;28;20048;-69
2022/04/25 13:02:17;;;;;;;0.00;0.00;;;15.20;80.30;;;;;;4186199;28;20061;-70
2022/04/25 13:05:13;;;;;;;0.00;0.00;;;15.30;80.00;;;;;;4185023;28;20145;-70
2022/04/25 13:07:44;;;;;;;0.00;0.00;;;15.20;79.70;;;;;;4198040;28;20068;-69
2022/04/25 13:10:11;;;;;;;0.00;0.00;;;15.20;80.00;;;;;;4171157;28;20106;-70
2022/04/25 13:12:35;;;;;;;0.00;0.00;;;15.20;79.60;;;;;;4185037;28;20045;-70
2022/04/25 13:14:59;;;;;;;0.00;0.00;;;15.20;79.10;;;;;;4184629;28;20037;-71
2022/04/25 13:17:29;;;;;;;0.00;0.00;;;15.30;79.00;;;;;;4170449;28;20098;-71
2022/04/25 13:19:54;;;;;;;0.00;0.00;;;15.20;78.70;;;;;;4176941;28;20045;-68
2022/04/25 13:22:21;;;;;;;0.00;0.00;;;15.10;79.30;;;;;;4173585;28;20103;-68
2022/04/25 13:24:48;;;;;;;0.00;0.00;;;15.10;79.50;;;;;;4201163;28;20045;-68
2022/04/25 13:27:15;;;;;;;0.00;0.00;;;15.00;79.70;;;;;;4187414;28;20053;-67
2022/04/25 13:29:37;;;;;;;0.00;0.00;;;15.00;79.90;;;;;;4187386;28;20053;-70